createdAt,value
2018-01-26T00:02:19.468Z,6.17
2018-01-26T00:07:22.777Z,6.47
2018-01-26T00:12:25.850Z,6.60
2018-01-26T00:17:29.698Z,7.12
2018-01-26T00:22:33.932Z,9.90
2018-01-26T00:27:37.819Z,8.70
2018-01-26T00:32:42.207Z,11.17
2018-01-26T00:37:46.647Z,8.67
2018-01-26T00:42:51.121Z,7.90
2018-01-26T00:47:55.578Z,9.17
2018-01-26T00:52:59.998Z,8.30
2018-01-26T00:58:03.847Z,8.03
2018-01-26T01:03:07.904Z,9.20
2018-01-26T01:08:11.759Z,8.15
2018-01-26T01:13:15.599Z,9.37
2018-01-26T01:18:19.474Z,7.73
2018-01-26T01:23:22.966Z,7.73
2018-01-26T01:28:26.839Z,7.57
2018-01-26T01:33:31.440Z,8.07
2018-01-26T01:38:36.046Z,9.07
2018-01-26T01:43:39.131Z,9.67
2018-01-26T01:48:42.233Z,9.57
2018-01-26T01:53:46.840Z,10.10
2018-01-26T01:58:50.742Z,10.00
2018-01-26T02:03:53.827Z,10.33
2018-01-26T02:08:58.262Z,10.97
2018-01-26T02:14:02.179Z,10.63
2018-01-26T02:19:05.659Z,10.70
2018-01-26T02:24:33.051Z,10.03
2018-01-26T02:29:36.877Z,11.20
2018-01-26T02:34:41.298Z,8.87
2018-01-26T02:39:44.393Z,9.53
2018-01-26T02:44:47.862Z,10.00
2018-01-26T02:49:51.012Z,9.87
2018-01-26T02:54:54.863Z,8.50
2018-01-26T02:59:57.956Z,9.83
2018-01-26T03:05:02.436Z,10.07
2018-01-26T03:10:06.885Z,8.23
2018-01-26T03:15:10.740Z,7.77
2018-01-26T03:20:15.198Z,9.80
2018-01-26T03:25:19.048Z,6.23
2018-01-26T03:30:23.668Z,10.87
2018-01-26T03:35:28.640Z,10.57
2018-01-26T03:40:33.232Z,7.47
2018-01-26T03:45:37.449Z,8.23
2018-01-26T03:50:41.319Z,8.43
2018-01-26T03:55:45.542Z,8.10
2018-01-26T04:00:49.975Z,8.53
2018-01-26T04:05:55.284Z,8.50
2018-01-26T04:10:59.144Z,8.77
2018-01-26T04:16:02.238Z,7.30
2018-01-26T04:21:05.346Z,9.77
2018-01-26T04:26:09.796Z,8.40
2018-01-26T04:31:14.404Z,9.00
2018-01-26T04:36:19.045Z,8.53
2018-01-26T04:41:22.160Z,8.27
2018-01-26T04:46:25.655Z,11.73
2018-01-26T04:51:30.264Z,9.13
2018-01-26T04:56:34.862Z,8.50
2018-01-26T05:01:39.332Z,7.70
2018-01-26T05:06:42.424Z,8.83
2018-01-26T05:11:46.881Z,9.87
2018-01-26T05:16:50.741Z,9.90
2018-01-26T05:21:55.353Z,10.87
2018-01-26T05:26:58.447Z,9.27
2018-01-26T05:32:01.545Z,11.60
2018-01-26T05:37:04.637Z,12.47
2018-01-26T05:42:08.541Z,10.10
2018-01-26T05:47:13.035Z,9.07
2018-01-26T05:52:17.488Z,10.63
2018-01-26T05:57:22.138Z,9.93
2018-01-26T06:02:25.253Z,9.43
2018-01-26T06:07:30.591Z,9.97
2018-01-26T06:12:34.820Z,8.17
2018-01-26T06:17:39.259Z,11.07
2018-01-26T06:22:43.696Z,10.67
2018-01-26T06:27:47.649Z,8.33
2018-01-26T06:32:53.857Z,9.47
2018-01-26T06:37:58.318Z,7.87
2018-01-26T06:43:02.145Z,12.90
2018-01-26T06:48:05.997Z,9.40
2018-01-26T06:53:10.461Z,9.97
2018-01-26T06:58:13.944Z,12.93
2018-01-26T07:03:17.826Z,17.90
2018-01-26T07:08:20.946Z,10.37
2018-01-26T07:13:24.892Z,12.37
2018-01-26T07:18:29.098Z,15.73
2018-01-26T07:23:33.548Z,10.23
2018-01-26T07:28:37.425Z,10.47
2018-01-26T07:33:40.947Z,10.03
2018-01-26T07:38:44.036Z,10.60
2018-01-26T07:43:48.266Z,12.80
2018-01-26T07:48:51.360Z,12.37
2018-01-26T07:53:54.472Z,12.33
2018-01-26T07:58:57.576Z,12.03
2018-01-26T08:04:02.031Z,14.37
2018-01-26T08:09:06.651Z,15.02
2018-01-26T08:14:09.778Z,13.33
2018-01-26T08:19:14.009Z,13.60
2018-01-26T08:24:17.129Z,12.10
2018-01-26T08:29:20.245Z,13.50
2018-01-26T08:34:24.107Z,10.10
2018-01-26T08:39:27.228Z,12.10
2018-01-26T08:44:31.476Z,12.40
2018-01-26T08:49:35.322Z,11.93
2018-01-26T08:54:39.765Z,13.17
2018-01-26T08:59:44.216Z,15.43
2018-01-26T09:04:47.704Z,11.33
2018-01-26T09:09:52.157Z,10.37
2018-01-26T09:14:56.595Z,10.38
2018-01-26T09:20:00.078Z,10.77
2018-01-26T09:25:04.520Z,11.97
2018-01-26T09:30:08.982Z,12.90
2018-01-26T09:35:12.456Z,10.53
2018-01-26T09:40:15.573Z,11.17
2018-01-26T09:45:20.005Z,8.70
2018-01-26T09:50:24.484Z,11.63
2018-01-26T09:55:29.506Z,9.13
2018-01-26T10:00:33.928Z,11.43
2018-01-26T10:05:37.412Z,8.80
2018-01-26T10:10:40.516Z,10.33
2018-01-26T10:15:44.976Z,9.70
2018-01-26T10:20:48.833Z,8.93
2018-01-26T10:25:52.699Z,6.60
2018-01-26T10:30:57.141Z,6.70
2018-01-26T10:36:01.593Z,6.50
2018-01-26T10:41:06.052Z,5.03
2018-01-26T10:46:09.908Z,6.47
2018-01-26T10:51:14.144Z,6.13
2018-01-26T10:56:18.391Z,7.43
2018-01-26T11:01:21.488Z,7.70
2018-01-26T11:06:24.603Z,6.83
2018-01-26T11:11:28.116Z,7.77
2018-01-26T11:16:31.237Z,8.50
2018-01-26T11:21:35.509Z,9.20
2018-01-26T11:26:38.627Z,11.30
2018-01-26T11:31:42.505Z,11.47
2018-01-26T11:36:46.005Z,9.27
2018-01-26T11:41:50.442Z,10.50
2018-01-26T11:46:55.988Z,6.27
2018-01-26T11:51:59.488Z,10.30
2018-01-26T11:57:03.723Z,7.77
2018-01-26T12:02:07.568Z,9.17
2018-01-26T12:07:11.991Z,8.67
2018-01-26T12:12:15.167Z,9.43
2018-01-26T12:17:19.443Z,7.50
2018-01-26T12:22:22.924Z,10.27
2018-01-26T12:27:27.351Z,6.43
2018-01-26T12:32:31.792Z,8.03
2018-01-26T12:37:36.037Z,9.27
2018-01-26T12:42:39.571Z,10.07
2018-01-26T12:47:44.207Z,6.47
2018-01-26T12:52:48.140Z,9.40
2018-01-26T12:57:52.005Z,8.37
2018-01-26T13:02:56.608Z,8.13
2018-01-26T13:08:00.106Z,9.20
2018-01-26T13:13:03.579Z,8.37
2018-01-26T13:18:07.439Z,11.23
2018-01-26T13:23:10.535Z,11.37
2018-01-26T13:28:14.967Z,11.23
2018-01-26T13:33:19.204Z,7.97
2018-01-26T13:38:23.091Z,10.47
2018-01-26T13:43:27.287Z,10.80
2018-01-26T13:48:30.371Z,12.83
2018-01-26T13:53:34.259Z,9.27
2018-01-26T13:58:38.987Z,12.47
2018-01-26T14:03:43.590Z,8.20
2018-01-26T14:08:46.685Z,10.60
2018-01-26T14:13:50.172Z,11.57
2018-01-26T14:18:54.765Z,11.27
2018-01-26T14:23:59.231Z,12.60
2018-01-26T14:29:03.465Z,12.55
2018-01-26T14:34:07.896Z,9.68
2018-01-26T14:39:12.337Z,12.97
2018-01-26T14:44:16.784Z,10.73
2018-01-26T14:49:21.425Z,10.27
2018-01-26T14:54:25.688Z,13.20
2018-01-26T14:59:29.587Z,12.23
2018-01-26T15:04:33.973Z,18.15
2018-01-26T15:09:37.096Z,14.73
2018-01-26T15:14:40.172Z,14.80
2018-01-26T15:19:44.012Z,14.40
2018-01-26T15:24:47.087Z,12.60
2018-01-26T15:29:50.560Z,12.20
2018-01-26T15:34:53.656Z,13.23
2018-01-26T15:39:56.743Z,16.73
2018-01-26T15:45:00.964Z,10.87
2018-01-26T15:50:05.420Z,14.07
2018-01-26T15:55:09.874Z,15.40
2018-01-26T16:00:13.719Z,15.13
2018-01-26T16:05:16.807Z,15.93
2018-01-26T16:10:19.894Z,21.07
2018-01-26T16:15:23.777Z,11.00
2018-01-26T16:20:29.115Z,15.70
2018-01-26T16:25:33.590Z,14.87
2018-01-26T16:30:37.064Z,12.20
2018-01-26T16:35:40.184Z,13.83
2018-01-26T16:40:45.363Z,17.08
2018-01-26T16:45:49.648Z,12.20
2018-01-26T16:50:52.780Z,14.23
2018-01-26T16:55:55.852Z,13.53
2018-01-26T17:00:59.323Z,11.50
2018-01-26T17:06:04.192Z,14.33
2018-01-26T17:11:08.036Z,13.17
2018-01-26T17:16:12.485Z,15.80
2018-01-26T17:21:17.100Z,19.37
2018-01-26T17:26:21.552Z,16.60
2018-01-26T17:31:25.068Z,16.93
2018-01-26T17:36:28.159Z,18.77
2018-01-26T17:41:32.604Z,13.97
2018-01-26T17:46:37.044Z,9.57
2018-01-26T17:51:40.139Z,13.80
2018-01-26T17:56:44.580Z,18.60
2018-01-26T18:01:48.529Z,15.33
2018-01-26T18:06:52.384Z,18.97
2018-01-26T18:11:56.841Z,19.63
2018-01-26T18:17:01.434Z,17.10
2018-01-26T18:22:05.875Z,13.70
2018-01-26T18:27:10.312Z,15.57
2018-01-26T18:32:14.772Z,17.85
2018-01-26T18:37:19.576Z,15.23
2018-01-26T18:42:24.017Z,14.00
2018-01-26T18:47:28.456Z,10.87
2018-01-26T18:52:31.551Z,17.50
2018-01-26T18:57:37.006Z,17.62
2018-01-26T19:02:41.435Z,19.53
2018-01-26T19:07:45.868Z,21.30
2018-01-26T19:12:48.973Z,19.67
2018-01-26T19:17:52.069Z,21.80
2018-01-26T19:22:56.508Z,25.57
2018-01-26T19:28:00.965Z,23.33
2018-01-26T19:33:05.388Z,25.00
2018-01-26T19:38:09.832Z,23.40
2018-01-26T19:43:14.268Z,18.47
2018-01-26T19:48:18.748Z,29.20
2018-01-26T19:53:21.841Z,19.63
2018-01-26T19:58:26.697Z,16.63
2018-01-26T20:03:32.757Z,20.77
2018-01-26T20:14:26.913Z,18.80
2018-01-26T20:19:31.144Z,19.50
2018-01-26T20:24:36.420Z,23.53
2018-01-26T20:29:40.901Z,20.40
2018-01-26T20:34:45.351Z,17.17
2018-01-26T20:39:49.869Z,21.83
2018-01-26T20:44:54.304Z,24.52
2018-01-26T20:49:58.897Z,23.57
2018-01-26T20:55:03.336Z,20.60
2018-01-26T21:00:06.869Z,16.80
2018-01-26T21:05:11.320Z,15.87
2018-01-26T21:10:15.769Z,22.20
2018-01-26T21:15:20.383Z,16.63
2018-01-26T21:20:24.858Z,17.00
2018-01-26T21:25:30.196Z,19.53
2018-01-26T21:30:34.640Z,21.07
2018-01-26T21:35:38.205Z,16.13
2018-01-26T21:40:43.111Z,22.17
2018-01-26T21:45:48.560Z,19.07
2018-01-26T21:50:52.083Z,22.63
2018-01-26T21:55:56.537Z,24.03
2018-01-26T22:01:00.021Z,20.77
2018-01-26T22:06:09.070Z,19.97
2018-01-26T22:11:12.949Z,19.03
2018-01-26T22:16:17.388Z,19.60
2018-01-26T22:21:21.979Z,20.10
2018-01-26T22:26:26.439Z,22.07
2018-01-26T22:31:30.331Z,21.33
2018-01-26T22:36:33.477Z,22.77
2018-01-26T22:41:37.560Z,20.90
2018-01-26T22:46:40.664Z,23.37
2018-01-26T22:51:44.896Z,21.43
2018-01-26T22:56:48.068Z,22.40
2018-01-26T23:01:51.167Z,20.67
2018-01-26T23:06:54.259Z,24.70
2018-01-26T23:11:59.406Z,17.42
2018-01-26T23:17:02.920Z,25.37
2018-01-26T23:22:07.345Z,20.70
2018-01-26T23:27:10.443Z,18.13
2018-01-26T23:32:14.325Z,18.70
2018-01-26T23:37:18.629Z,19.33
2018-01-26T23:42:22.576Z,17.13
2018-01-26T23:47:26.073Z,20.90
2018-01-26T23:52:30.304Z,18.93
2018-01-26T23:57:34.752Z,22.70
